Time;durP1;ratioP1;P1;durP2;ratioP2;P2;SDS_P1;SDS_P2;PMS_P1;PMS_P2;Temp;Humidity;BMP_temperature;BMP_pressure;BME280_temperature;BME280_humidity;BME280_pressure;Samples;Min_cycle;Max_cycle;Signal;HPM_P1;HPM_P2
2022/04/18 00:00:22;;;;;;;;;5.00;5.00;;;;;;;;5075302;28;46479;-72
2022/04/18 00:02:47;;;;;;;;;3.75;3.75;;;;;;;;5077412;27;45601;-72
2022/04/18 00:05:12;;;;;;;;;4.75;4.00;;;;;;;;5075620;27;45343;-72
2022/04/18 00:07:37;;;;;;;;;4.25;4.25;;;;;;;;5073730;28;45299;-72
2022/04/18 00:10:03;;;;;;;;;3.50;3.50;;;;;;;;5074958;28;46309;-72
2022/04/18 00:12:29;;;;;;;;;4.50;4.50;;;;;;;;5074240;28;45383;-72
2022/04/18 00:14:54;;;;;;;;;4.25;4.25;;;;;;;;5076960;27;45556;-72
2022/04/18 00:17:19;;;;;;;;;6.00;6.00;;;;;;;;5076090;27;45372;-72
2022/04/18 00:19:45;;;;;;;;;3.50;3.50;;;;;;;;5078106;27;45395;-72
2022/04/18 00:22:10;;;;;;;;;4.00;2.25;;;;;;;;5075000;28;45342;-72
2022/04/18 00:24:35;;;;;;;;;4.75;3.25;;;;;;;;5074842;27;46209;-72
2022/04/18 00:27:04;;;;;;;;;3.25;3.25;;;;;;;;5075252;28;45740;-72
2022/04/18 00:29:29;;;;;;;;;5.00;5.00;;;;;;;;5075258;27;46079;-73
2022/04/18 00:31:55;;;;;;;;;4.00;4.00;;;;;;;;5077803;27;45334;-72
2022/04/18 00:34:20;;;;;;;;;5.00;5.00;;;;;;;;5074988;27;45283;-72
2022/04/18 00:36:45;;;;;;;;;4.25;4.25;;;;;;;;5075284;28;45738;-73
2022/04/18 00:39:11;;;;;;;;;5.50;5.00;;;;;;;;5072565;27;46976;-72
2022/04/18 00:41:36;;;;;;;;;5.25;5.00;;;;;;;;5069368;28;45468;-72
2022/04/18 00:44:02;;;;;;;;;4.50;4.50;;;;;;;;5062268;28;45405;-72
2022/04/18 00:46:27;;;;;;;;;5.00;5.00;;;;;;;;5075263;28;45299;-72
2022/04/18 00:48:53;;;;;;;;;4.00;4.00;;;;;;;;5070652;28;45441;-73
2022/04/18 00:51:24;;;;;;;;;4.25;4.25;;;;;;;;5071292;27;45550;-72
2022/04/18 00:53:52;;;;;;;;;4.00;4.00;;;;;;;;5074816;27;45343;-72
2022/04/18 00:56:18;;;;;;;;;5.75;5.75;;;;;;;;5063778;28;45430;-72
2022/04/18 00:58:44;;;;;;;;;3.50;3.50;;;;;;;;5071997;28;49850;-72
2022/04/18 01:01:10;;;;;;;;;5.75;5.00;;;;;;;;5081284;27;45296;-72
2022/04/18 01:03:35;;;;;;;;;5.75;4.50;;;;;;;;5083375;27;45409;-72
2022/04/18 01:06:01;;;;;;;;;5.00;5.00;;;;;;;;5081457;28;45942;-72
2022/04/18 01:08:31;;;;;;;;;3.00;3.00;;;;;;;;5080808;27;46346;-72
2022/04/18 01:10:56;;;;;;;;;4.00;4.00;;;;;;;;5084534;27;45342;-73
2022/04/18 01:13:21;;;;;;;;;3.25;3.25;;;;;;;;5083476;27;45290;-72
2022/04/18 01:15:53;;;;;;;;;5.00;4.75;;;;;;;;5080948;28;45473;-72
2022/04/18 01:18:18;;;;;;;;;4.00;4.00;;;;;;;;5081342;28;45429;-72
2022/04/18 01:20:44;;;;;;;;;4.00;4.00;;;;;;;;5081057;28;45503;-72
2022/04/18 01:23:09;;;;;;;;;3.25;3.25;;;;;;;;5081975;28;45404;-72
2022/04/18 01:31:02;;;;;;;;;4.00;4.00;;;;;;;;5080831;28;45294;-72
2022/04/18 01:33:27;;;;;;;;;6.00;3.00;;;;;;;;5080237;27;45471;-72
2022/04/18 01:35:52;;;;;;;;;5.00;5.00;;;;;;;;5083249;27;45270;-73
2022/04/18 01:38:18;;;;;;;;;4.00;3.25;;;;;;;;5082293;27;46943;-73
2022/04/18 01:40:43;;;;;;;;;3.00;2.00;;;;;;;;5081272;27;45473;-73
2022/04/18 01:43:08;;;;;;;;;4.00;4.00;;;;;;;;5080536;27;45415;-72
2022/04/18 01:45:34;;;;;;;;;5.00;3.75;;;;;;;;5080503;27;45375;-72
2022/04/18 01:48:00;;;;;;;;;3.00;3.00;;;;;;;;5080978;28;46586;-72
2022/04/18 01:50:25;;;;;;;;;4.00;3.50;;;;;;;;5079461;28;45431;-72
2022/04/18 01:52:50;;;;;;;;;4.25;4.25;;;;;;;;5081584;27;45423;-73
2022/04/18 01:55:15;;;;;;;;;6.25;5.00;;;;;;;;5080006;28;45511;-72
2022/04/18 01:57:41;;;;;;;;;4.00;4.00;;;;;;;;5083249;27;45284;-72
2022/04/18 02:00:07;;;;;;;;;4.75;3.75;;;;;;;;5083806;27;45335;-72
2022/04/18 02:02:32;;;;;;;;;3.75;3.75;;;;;;;;5080968;28;45492;-72
2022/04/18 02:04:57;;;;;;;;;5.00;3.00;;;;;;;;5081540;28;45929;-72
2022/04/18 02:07:22;;;;;;;;;4.00;4.00;;;;;;;;5081507;27;45738;-72
2022/04/18 02:09:47;;;;;;;;;4.00;4.00;;;;;;;;5076950;27;45503;-72
2022/04/18 02:12:13;;;;;;;;;3.00;3.00;;;;;;;;5076459;27;45535;-73
2022/04/18 02:14:38;;;;;;;;;4.00;4.00;;;;;;;;5076719;27;45461;-72
2022/04/18 02:17:03;;;;;;;;;3.00;3.00;;;;;;;;5077990;28;46404;-72
2022/04/18 02:19:28;;;;;;;;;3.75;3.75;;;;;;;;5075353;28;45931;-72
2022/04/18 02:21:54;;;;;;;;;5.25;4.25;;;;;;;;5073153;27;45452;-72
2022/04/18 02:24:19;;;;;;;;;3.25;3.25;;;;;;;;5075426;28;45676;-73
2022/04/18 02:26:44;;;;;;;;;8.00;5.00;;;;;;;;5076858;27;49276;-72
2022/04/18 02:29:09;;;;;;;;;3.50;3.50;;;;;;;;5078140;27;45350;-72
2022/04/18 02:32:47;;;;;;;;;5.00;5.00;;;;;;;;5076919;28;45413;-73
2022/04/18 02:34:20;;;;;;;;;3.00;3.00;;;;;;;;5076698;28;45589;-72
2022/04/18 02:36:45;;;;;;;;;3.25;3.00;;;;;;;;5076126;28;45619;-72
2022/04/18 02:39:10;;;;;;;;;7.50;6.00;;;;;;;;5080067;27;45551;-72
2022/04/18 02:41:36;;;;;;;;;3.75;3.00;;;;;;;;5076923;27;47177;-72
2022/04/18 02:44:01;;;;;;;;;5.00;5.00;;;;;;;;5077793;27;45567;-72
2022/04/18 02:46:26;;;;;;;;;3.00;3.00;;;;;;;;5073181;28;46014;-72
2022/04/18 02:48:53;;;;;;;;;5.25;5.25;;;;;;;;5076372;28;45479;-72
2022/04/18 02:51:19;;;;;;;;;3.00;3.00;;;;;;;;5077861;27;45437;-73
2022/04/18 02:53:44;;;;;;;;;3.75;3.75;;;;;;;;5075053;27;45440;-73
2022/04/18 02:56:09;;;;;;;;;4.25;3.75;;;;;;;;5077812;28;46403;-73
2022/04/18 02:58:34;;;;;;;;;6.50;3.75;;;;;;;;5076044;27;45443;-72
2022/04/18 03:00:59;;;;;;;;;4.00;4.00;;;;;;;;5077805;27;45397;-72
2022/04/18 03:03:25;;;;;;;;;4.00;4.00;;;;;;;;5076160;28;45429;-72
2022/04/18 03:05:50;;;;;;;;;2.75;2.75;;;;;;;;5076371;27;46309;-72
2022/04/18 03:08:15;;;;;;;;;4.75;4.50;;;;;;;;5075826;28;45555;-72
2022/04/18 03:13:24;;;;;;;;;3.50;3.00;;;;;;;;5075038;28;45330;-72
2022/04/18 03:15:49;;;;;;;;;3.00;2.25;;;;;;;;5078676;27;45439;-72
2022/04/18 03:18:15;;;;;;;;;1.50;1.50;;;;;;;;5077647;27;45488;-72
2022/04/18 03:20:40;;;;;;;;;5.25;4.00;;;;;;;;5075469;27;45203;-72
2022/04/18 03:23:06;;;;;;;;;4.00;4.00;;;;;;;;5075831;28;45441;-72
2022/04/18 03:25:31;;;;;;;;;4.25;4.25;;;;;;;;5074469;28;47895;-72
2022/04/18 03:27:56;;;;;;;;;3.75;3.00;;;;;;;;5076011;27;45272;-72
2022/04/18 03:30:21;;;;;;;;;3.75;3.75;;;;;;;;5075439;27;45441;-72
2022/04/18 03:32:47;;;;;;;;;3.75;2.75;;;;;;;;5068155;27;45496;-72
2022/04/18 03:35:12;;;;;;;;;3.75;3.75;;;;;;;;5076682;28;45422;-73
2022/04/18 03:40:21;;;;;;;;;3.75;3.75;;;;;;;;5068423;28;45356;-72
2022/04/18 03:42:46;;;;;;;;;4.00;3.25;;;;;;;;5068127;28;45466;-72
2022/04/18 03:45:11;;;;;;;;;4.25;3.25;;;;;;;;5077235;27;45604;-72
2022/04/18 03:47:36;;;;;;;;;4.75;4.00;;;;;;;;5073879;28;45479;-73
2022/04/18 03:50:02;;;;;;;;;3.00;3.00;;;;;;;;5076700;27;45358;-72
2022/04/18 03:52:27;;;;;;;;;4.50;4.50;;;;;;;;5075215;28;45500;-72
2022/04/18 03:54:52;;;;;;;;;4.00;4.00;;;;;;;;5072727;28;46132;-72
2022/04/18 03:57:18;;;;;;;;;3.25;3.25;;;;;;;;5076902;27;45265;-72
2022/04/18 03:59:43;;;;;;;;;5.50;4.75;;;;;;;;5075458;28;45486;-72
2022/04/18 04:02:08;;;;;;;;;3.50;3.50;;;;;;;;5076352;27;45685;-72
2022/04/18 04:04:34;;;;;;;;;4.50;4.50;;;;;;;;5072754;28;46323;-73
2022/04/18 04:06:59;;;;;;;;;4.00;4.00;;;;;;;;5075529;27;45394;-72
2022/04/18 04:09:24;;;;;;;;;3.75;3.75;;;;;;;;5074680;27;45239;-73
2022/04/18 04:11:50;;;;;;;;;5.75;5.75;;;;;;;;5075042;28;45441;-72
2022/04/18 04:14:15;;;;;;;;;3.25;3.25;;;;;;;;5076210;27;45449;-72
2022/04/18 04:16:41;;;;;;;;;5.25;5.00;;;;;;;;5075569;27;45247;-72
2022/04/18 04:19:06;;;;;;;;;3.00;3.00;;;;;;;;5074965;28;45469;-72
2022/04/18 04:21:32;;;;;;;;;3.50;3.50;;;;;;;;5077226;27;45425;-72
2022/04/18 04:23:57;;;;;;;;;4.25;4.25;;;;;;;;5073992;27;45475;-72
2022/04/18 04:26:22;;;;;;;;;4.75;4.75;;;;;;;;5075527;27;45552;-73
2022/04/18 04:28:48;;;;;;;;;5.50;5.50;;;;;;;;5075731;27;45435;-72
2022/04/18 04:31:13;;;;;;;;;5.75;4.25;;;;;;;;5074533;28;45522;-72
2022/04/18 04:33:38;;;;;;;;;6.00;4.25;;;;;;;;5077308;27;46178;-72
2022/04/18 04:36:03;;;;;;;;;3.75;2.00;;;;;;;;5073838;28;45483;-73
2022/04/18 04:38:28;;;;;;;;;4.25;3.75;;;;;;;;5076046;27;45312;-73
2022/04/18 04:40:54;;;;;;;;;4.75;4.75;;;;;;;;5076099;27;45415;-73
2022/04/18 04:43:27;;;;;;;;;6.00;3.50;;;;;;;;5071991;27;45651;-72
2022/04/18 04:45:53;;;;;;;;;3.00;3.00;;;;;;;;5074410;28;45393;-72
2022/04/18 04:48:18;;;;;;;;;5.50;4.00;;;;;;;;5076940;27;45275;-72
2022/04/18 04:50:43;;;;;;;;;4.00;3.00;;;;;;;;5074353;27;45617;-72
2022/04/18 04:53:08;;;;;;;;;4.25;4.25;;;;;;;;5075551;27;47404;-72
2022/04/18 04:55:35;;;;;;;;;4.25;4.25;;;;;;;;5074641;27;45775;-72
2022/04/18 04:58:02;;;;;;;;;6.00;6.00;;;;;;;;5074756;28;45652;-72
2022/04/18 05:00:27;;;;;;;;;3.50;3.50;;;;;;;;5077515;27;45419;-73
2022/04/18 05:02:55;;;;;;;;;3.00;3.00;;;;;;;;5077409;27;45438;-72
2022/04/18 05:05:20;;;;;;;;;5.00;5.00;;;;;;;;5075618;27;45274;-73
2022/04/18 05:07:45;;;;;;;;;4.00;4.00;;;;;;;;5074582;28;45365;-72
2022/04/18 05:10:10;;;;;;;;;6.00;4.00;;;;;;;;5073634;28;45558;-72
2022/04/18 05:12:36;;;;;;;;;3.25;3.25;;;;;;;;5072698;28;46972;-73
2022/04/18 05:15:02;;;;;;;;;2.00;1.00;;;;;;;;5076258;27;45315;-73
2022/04/18 05:17:27;;;;;;;;;3.50;3.50;;;;;;;;5074589;27;45375;-72
2022/04/18 05:19:52;;;;;;;;;1.75;1.75;;;;;;;;5075319;28;45482;-72
2022/04/18 05:22:17;;;;;;;;;4.00;3.50;;;;;;;;5074256;28;47495;-72
2022/04/18 05:24:43;;;;;;;;;2.25;2.25;;;;;;;;5073905;27;45457;-72
2022/04/18 05:27:08;;;;;;;;;4.00;4.00;;;;;;;;5074548;28;45427;-72
2022/04/18 05:29:33;;;;;;;;;3.50;3.50;;;;;;;;5072284;28;45382;-72
2022/04/18 05:31:58;;;;;;;;;3.75;3.75;;;;;;;;5074885;28;46281;-73
2022/04/18 05:34:24;;;;;;;;;3.50;3.50;;;;;;;;5074087;28;45361;-73
2022/04/18 05:36:49;;;;;;;;;2.25;2.25;;;;;;;;5076159;27;45411;-72
2022/04/18 05:39:14;;;;;;;;;4.50;3.50;;;;;;;;5075484;27;45511;-72
2022/04/18 05:41:39;;;;;;;;;4.00;4.00;;;;;;;;5074614;27;47059;-72
2022/04/18 05:44:05;;;;;;;;;4.25;4.25;;;;;;;;5074939;27;45481;-72
2022/04/18 05:46:30;;;;;;;;;3.25;3.25;;;;;;;;5076619;27;45919;-72
2022/04/18 05:48:55;;;;;;;;;4.50;4.50;;;;;;;;5077282;28;45334;-72
2022/04/18 05:51:20;;;;;;;;;5.00;5.00;;;;;;;;5076953;27;45367;-71
2022/04/18 05:53:46;;;;;;;;;4.00;4.00;;;;;;;;5079333;27;45450;-72
2022/04/18 05:56:11;;;;;;;;;6.00;6.00;;;;;;;;5079186;27;45265;-72
2022/04/18 05:58:36;;;;;;;;;4.75;4.75;;;;;;;;5075610;28;45663;-72
2022/04/18 06:01:01;;;;;;;;;4.75;3.25;;;;;;;;5080240;27;46879;-72
2022/04/18 06:03:27;;;;;;;;;6.00;5.00;;;;;;;;5078940;27;45534;-73
2022/04/18 06:05:52;;;;;;;;;6.00;4.75;;;;;;;;5065373;27;45501;-72
2022/04/18 06:08:17;;;;;;;;;4.75;4.00;;;;;;;;5077974;27;45517;-72
2022/04/18 06:10:42;;;;;;;;;5.25;5.00;;;;;;;;5078665;27;45581;-72
2022/04/18 06:13:11;;;;;;;;;4.50;4.50;;;;;;;;5076299;28;45310;-73
2022/04/18 06:15:36;;;;;;;;;3.00;2.25;;;;;;;;5075445;28;45396;-72
2022/04/18 06:18:01;;;;;;;;;4.00;4.00;;;;;;;;5064972;28;45566;-72
2022/04/18 06:20:26;;;;;;;;;4.00;4.00;;;;;;;;5076517;28;45756;-73
2022/04/18 06:22:52;;;;;;;;;3.00;3.00;;;;;;;;5077741;28;45312;-72
2022/04/18 06:25:17;;;;;;;;;4.50;4.50;;;;;;;;5076932;28;45492;-72
2022/04/18 06:27:42;;;;;;;;;4.00;4.00;;;;;;;;5077506;27;45322;-72
2022/04/18 06:30:07;;;;;;;;;3.00;3.00;;;;;;;;5063520;28;45603;-73
2022/04/18 06:32:37;;;;;;;;;3.75;3.75;;;;;;;;5076453;27;45508;-72
2022/04/18 06:35:02;;;;;;;;;3.75;3.75;;;;;;;;5076047;28;45334;-73
2022/04/18 06:37:28;;;;;;;;;3.50;3.50;;;;;;;;5076363;28;45397;-72
2022/04/18 06:39:53;;;;;;;;;4.00;3.75;;;;;;;;5076139;28;46355;-71
2022/04/18 06:42:19;;;;;;;;;5.00;4.75;;;;;;;;5076200;27;45520;-72
2022/04/18 06:44:44;;;;;;;;;4.00;4.00;;;;;;;;5077220;27;45490;-72
2022/04/18 06:47:09;;;;;;;;;4.00;4.00;;;;;;;;5077361;27;45546;-73
2022/04/18 06:49:34;;;;;;;;;5.00;5.00;;;;;;;;5076381;27;47131;-72
2022/04/18 06:51:59;;;;;;;;;4.00;4.00;;;;;;;;5075744;28;45416;-72
2022/04/18 06:54:25;;;;;;;;;3.00;3.00;;;;;;;;5076285;28;45406;-73
2022/04/18 06:56:58;;;;;;;;;3.75;3.75;;;;;;;;5077704;27;45296;-72
2022/04/18 06:59:24;;;;;;;;;6.00;5.00;;;;;;;;5073890;27;45646;-72
2022/04/18 07:01:49;;;;;;;;;3.00;3.00;;;;;;;;5079431;27;45580;-72
2022/04/18 07:04:14;;;;;;;;;3.00;3.00;;;;;;;;5077885;27;51113;-72
2022/04/18 07:06:40;;;;;;;;;3.50;3.50;;;;;;;;5077746;27;45367;-73
2022/04/18 07:09:05;;;;;;;;;4.00;4.00;;;;;;;;5075932;27;45382;-72
2022/04/18 07:11:30;;;;;;;;;4.00;4.00;;;;;;;;5076313;27;45356;-72
2022/04/18 07:13:56;;;;;;;;;3.00;3.00;;;;;;;;5077379;28;45295;-72
2022/04/18 07:16:21;;;;;;;;;3.50;3.50;;;;;;;;5075845;28;45479;-72
2022/04/18 07:18:46;;;;;;;;;5.00;4.00;;;;;;;;5079236;27;45321;-72
2022/04/18 07:21:11;;;;;;;;;4.25;4.00;;;;;;;;5077123;27;45419;-73
2022/04/18 07:23:37;;;;;;;;;3.00;3.00;;;;;;;;5076104;27;45585;-74
2022/04/18 07:26:02;;;;;;;;;4.50;3.00;;;;;;;;5077303;27;45325;-72
2022/04/18 07:28:27;;;;;;;;;3.25;3.25;;;;;;;;5077724;27;47956;-71
2022/04/18 07:30:52;;;;;;;;;5.75;5.75;;;;;;;;5075167;27;45459;-72
2022/04/18 07:33:17;;;;;;;;;6.75;6.75;;;;;;;;5078651;27;45739;-74
2022/04/18 07:35:43;;;;;;;;;6.00;6.00;;;;;;;;5075623;28;45497;-74
2022/04/18 07:40:53;;;;;;;;;5.75;4.75;;;;;;;;5078157;27;45354;-74
2022/04/18 07:43:18;;;;;;;;;8.00;5.75;;;;;;;;5077437;27;45516;-74
2022/04/18 07:45:44;;;;;;;;;7.00;7.00;;;;;;;;5077388;27;45450;-73
2022/04/18 07:48:09;;;;;;;;;6.00;6.00;;;;;;;;5077591;27;45936;-73
2022/04/18 07:53:18;;;;;;;;;10.50;9.75;;;;;;;;5072117;28;45599;-73
2022/04/18 07:55:43;;;;;;;;;8.00;7.00;;;;;;;;5077076;27;45330;-73
2022/04/18 07:58:09;;;;;;;;;5.50;5.50;;;;;;;;5077005;27;45545;-73
2022/04/18 08:00:34;;;;;;;;;10.00;9.75;;;;;;;;5075117;28;45331;-74
2022/04/18 08:02:59;;;;;;;;;9.00;7.75;;;;;;;;5075375;28;45279;-73
2022/04/18 08:05:25;;;;;;;;;7.25;7.00;;;;;;;;5075720;27;45513;-74
2022/04/18 08:07:50;;;;;;;;;10.00;6.25;;;;;;;;5074675;28;45414;-73
2022/04/18 08:10:15;;;;;;;;;7.75;6.50;;;;;;;;5076058;27;45453;-74
2022/04/18 08:12:40;;;;;;;;;9.25;7.25;;;;;;;;5076074;27;45251;-74
2022/04/18 08:15:08;;;;;;;;;9.75;8.00;;;;;;;;5075953;27;45523;-74
2022/04/18 08:17:33;;;;;;;;;7.25;6.25;;;;;;;;5081897;27;45517;-73
2022/04/18 08:19:58;;;;;;;;;6.25;6.00;;;;;;;;5062796;27;45548;-73
2022/04/18 08:22:23;;;;;;;;;6.00;6.00;;;;;;;;5072667;27;45424;-74
2022/04/18 08:24:48;;;;;;;;;7.25;7.00;;;;;;;;5074816;28;45358;-73
2022/04/18 08:27:14;;;;;;;;;9.00;7.75;;;;;;;;5077391;27;47223;-74
2022/04/18 08:29:39;;;;;;;;;7.50;5.25;;;;;;;;5075207;27;45165;-74
2022/04/18 08:32:04;;;;;;;;;10.00;6.50;;;;;;;;5076116;27;45354;-72
2022/04/18 08:34:30;;;;;;;;;6.00;6.00;;;;;;;;5074591;27;45430;-73
2022/04/18 08:36:55;;;;;;;;;6.50;6.50;;;;;;;;5074399;27;47503;-73
2022/04/18 08:39:20;;;;;;;;;9.75;8.00;;;;;;;;5076462;27;45371;-74
2022/04/18 08:41:49;;;;;;;;;7.00;7.00;;;;;;;;5073066;28;45360;-73
2022/04/18 08:44:15;;;;;;;;;9.25;7.50;;;;;;;;5075200;27;45418;-73
2022/04/18 08:46:41;;;;;;;;;7.00;7.00;;;;;;;;5075828;27;46319;-73
2022/04/18 08:54:34;;;;;;;;;8.25;8.25;;;;;;;;5073786;28;45613;-73
2022/04/18 08:56:59;;;;;;;;;8.00;8.00;;;;;;;;5071380;27;47072;-74
2022/04/18 08:59:25;;;;;;;;;8.25;8.25;;;;;;;;5075200;27;45401;-73
2022/04/18 09:01:52;;;;;;;;;8.25;8.00;;;;;;;;5074010;27;45396;-74
2022/04/18 09:04:19;;;;;;;;;8.50;6.50;;;;;;;;5072125;27;45528;-73
2022/04/18 09:06:44;;;;;;;;;8.00;6.00;;;;;;;;5067180;27;46438;-74
2022/04/18 09:09:09;;;;;;;;;8.00;7.25;;;;;;;;5072229;27;45546;-73
2022/04/18 09:11:37;;;;;;;;;7.00;6.75;;;;;;;;5072027;27;45409;-73
2022/04/18 09:14:05;;;;;;;;;8.50;8.00;;;;;;;;5068900;28;45485;-73
2022/04/18 09:16:31;;;;;;;;;9.50;9.50;;;;;;;;5070700;27;47940;-73
2022/04/18 09:19:05;;;;;;;;;9.00;7.50;;;;;;;;5072547;27;45414;-73
2022/04/18 09:21:30;;;;;;;;;8.25;7.25;;;;;;;;5068558;27;45482;-73
2022/04/18 09:23:55;;;;;;;;;10.00;6.75;;;;;;;;5079030;27;45509;-73
2022/04/18 09:26:21;;;;;;;;;7.25;7.25;;;;;;;;5075880;27;46584;-73
2022/04/18 09:28:46;;;;;;;;;7.00;7.00;;;;;;;;5075410;27;45426;-73
2022/04/18 09:31:12;;;;;;;;;7.00;6.00;;;;;;;;5074211;27;45314;-72
2022/04/18 09:33:37;;;;;;;;;5.00;5.00;;;;;;;;5078863;27;45861;-72
2022/04/18 09:36:05;;;;;;;;;6.75;6.75;;;;;;;;5079286;27;45552;-73
2022/04/18 09:38:30;;;;;;;;;7.00;7.00;;;;;;;;5074934;28;45880;-73
2022/04/18 09:40:56;;;;;;;;;5.50;5.50;;;;;;;;5077727;27;45435;-73
2022/04/18 09:43:24;;;;;;;;;7.00;7.00;;;;;;;;5077689;27;45457;-73
2022/04/18 09:45:50;;;;;;;;;7.00;6.75;;;;;;;;5072936;27;47334;-72
2022/04/18 09:48:16;;;;;;;;;6.00;6.00;;;;;;;;5075470;27;45544;-72
2022/04/18 09:50:59;;;;;;;;;8.75;7.00;;;;;;;;5077741;27;45287;-74
2022/04/18 09:53:26;;;;;;;;;5.00;5.00;;;;;;;;5077088;27;45614;-74
2022/04/18 09:55:52;;;;;;;;;5.25;5.25;;;;;;;;5071266;27;46436;-73
2022/04/18 09:58:17;;;;;;;;;4.75;3.50;;;;;;;;5077820;27;45454;-72
2022/04/18 10:00:43;;;;;;;;;6.25;6.25;;;;;;;;5077248;27;45859;-75
2022/04/18 10:03:08;;;;;;;;;6.00;5.00;;;;;;;;5076930;27;45282;-74
2022/04/18 10:05:34;;;;;;;;;7.50;5.00;;;;;;;;5078453;27;46300;-74
2022/04/18 10:08:03;;;;;;;;;9.25;6.00;;;;;;;;5075572;27;45535;-74
2022/04/18 10:10:30;;;;;;;;;4.50;4.50;;;;;;;;5075228;28;45374;-74
2022/04/18 10:12:55;;;;;;;;;5.50;5.50;;;;;;;;5078920;27;45422;-73
2022/04/18 10:15:21;;;;;;;;;4.50;4.50;;;;;;;;5077121;27;45433;-74
2022/04/18 10:17:46;;;;;;;;;5.00;5.00;;;;;;;;5077652;27;45339;-74
2022/04/18 10:20:24;;;;;;;;;7.00;7.00;;;;;;;;5077392;27;45468;-74
2022/04/18 10:23:08;;;;;;;;;7.00;4.25;;;;;;;;5070489;27;45404;-73
2022/04/18 10:25:51;;;;;;;;;4.00;4.00;;;;;;;;5075520;27;45326;-73
2022/04/18 10:28:19;;;;;;;;;3.50;3.50;;;;;;;;5076906;27;45506;-73
2022/04/18 10:30:47;;;;;;;;;6.00;5.25;;;;;;;;5077230;27;45432;-73
2022/04/18 10:33:14;;;;;;;;;5.00;5.00;;;;;;;;5075105;27;45514;-73
2022/04/18 10:35:59;;;;;;;;;5.00;5.00;;;;;;;;5076907;27;46680;-72
2022/04/18 10:38:25;;;;;;;;;5.75;4.00;;;;;;;;5075020;27;45546;-74
2022/04/18 10:40:51;;;;;;;;;4.75;4.25;;;;;;;;5077540;27;45573;-73
2022/04/18 10:43:16;;;;;;;;;4.00;4.00;;;;;;;;5079450;27;45490;-73
2022/04/18 10:45:41;;;;;;;;;4.75;4.75;;;;;;;;5079281;27;45595;-73
2022/04/18 10:48:08;;;;;;;;;5.50;4.25;;;;;;;;5077108;27;45430;-74
2022/04/18 10:50:38;;;;;;;;;7.25;6.50;;;;;;;;5076575;27;45426;-73
2022/04/18 10:53:22;;;;;;;;;3.75;3.50;;;;;;;;5074507;28;45604;-73
2022/04/18 10:55:53;;;;;;;;;4.00;3.75;;;;;;;;5076032;27;47190;-74
2022/04/18 10:58:25;;;;;;;;;6.00;6.00;;;;;;;;5077691;27;45453;-73
2022/04/18 11:00:55;;;;;;;;;7.00;5.75;;;;;;;;5077433;27;45327;-74
2022/04/18 11:03:41;;;;;;;;;3.75;3.75;;;;;;;;5077587;27;45581;-73
2022/04/18 11:06:10;;;;;;;;;4.25;4.25;;;;;;;;5078228;27;47284;-73
2022/04/18 11:08:36;;;;;;;;;3.00;3.00;;;;;;;;5076083;27;45379;-73
2022/04/18 11:11:05;;;;;;;;;4.00;3.00;;;;;;;;5074165;27;45288;-73
2022/04/18 11:13:31;;;;;;;;;4.00;4.00;;;;;;;;5078639;27;45535;-73
2022/04/18 11:16:15;;;;;;;;;4.00;4.00;;;;;;;;5078373;27;46528;-74
2022/04/18 11:18:40;;;;;;;;;5.50;3.25;;;;;;;;5076068;27;45425;-70
2022/04/18 11:21:06;;;;;;;;;3.50;3.50;;;;;;;;5077192;27;45412;-74
2022/04/18 11:23:32;;;;;;;;;4.25;4.00;;;;;;;;5077137;27;45715;-73
2022/04/18 11:26:01;;;;;;;;;4.50;4.50;;;;;;;;5076914;27;45992;-73
2022/04/18 11:28:38;;;;;;;;;1.75;1.75;;;;;;;;5077259;27;45433;-73
2022/04/18 11:31:10;;;;;;;;;3.50;2.75;;;;;;;;5079347;27;45460;-73
2022/04/18 11:33:39;;;;;;;;;1.75;1.75;;;;;;;;5077053;27;45342;-74
2022/04/18 11:36:04;;;;;;;;;3.00;3.00;;;;;;;;5077111;27;45667;-73
2022/04/18 11:38:29;;;;;;;;;3.25;3.25;;;;;;;;5075707;27;45404;-73
2022/04/18 11:40:54;;;;;;;;;2.50;2.50;;;;;;;;5078915;27;45272;-74
2022/04/18 11:43:20;;;;;;;;;6.50;5.25;;;;;;;;5076081;27;45458;-73
2022/04/18 11:45:45;;;;;;;;;4.00;4.00;;;;;;;;5076724;27;45552;-74
2022/04/18 11:48:11;;;;;;;;;3.50;3.50;;;;;;;;5077383;27;45343;-73
2022/04/18 11:50:39;;;;;;;;;5.00;5.00;;;;;;;;5077220;27;45373;-74
2022/04/18 11:53:08;;;;;;;;;4.75;4.75;;;;;;;;5076471;27;45503;-73
2022/04/18 11:55:44;;;;;;;;;4.50;4.50;;;;;;;;5076673;27;46470;-73
2022/04/18 11:58:10;;;;;;;;;4.75;4.75;;;;;;;;5076969;27;45260;-74
2022/04/18 12:08:47;;;;;;;;;4.50;4.50;;;;;;;;5076707;27;45318;-73
2022/04/18 12:11:13;;;;;;;;;5.00;5.00;;;;;;;;5076106;27;45355;-73
2022/04/18 12:13:42;;;;;;;;;7.25;6.00;;;;;;;;5078504;27;45435;-73
2022/04/18 12:16:08;;;;;;;;;6.75;5.75;;;;;;;;5077890;27;45502;-73
2022/04/18 12:18:33;;;;;;;;;5.25;5.25;;;;;;;;5076604;27;45562;-73
2022/04/18 12:20:59;;;;;;;;;5.25;5.25;;;;;;;;5076602;27;45559;-73
2022/04/18 12:23:25;;;;;;;;;7.00;6.00;;;;;;;;5075895;27;47341;-73
2022/04/18 12:25:51;;;;;;;;;5.50;5.00;;;;;;;;5076471;27;46645;-73
2022/04/18 12:28:19;;;;;;;;;5.00;4.75;;;;;;;;5077421;27;45352;-73
2022/04/18 12:30:45;;;;;;;;;6.00;4.50;;;;;;;;5076521;27;45627;-73
2022/04/18 12:33:11;;;;;;;;;4.50;4.50;;;;;;;;5076124;27;45536;-72
2022/04/18 12:35:47;;;;;;;;;6.00;6.00;;;;;;;;5076298;27;46933;-72
2022/04/18 12:38:13;;;;;;;;;4.25;4.25;;;;;;;;5075898;27;45331;-74
2022/04/18 12:40:38;;;;;;;;;4.75;4.75;;;;;;;;5076439;27;45671;-73
2022/04/18 12:43:14;;;;;;;;;5.00;5.00;;;;;;;;5077252;27;45497;-72
2022/04/18 12:45:55;;;;;;;;;4.75;4.25;;;;;;;;5076208;27;46425;-73
2022/04/18 12:48:21;;;;;;;;;5.00;5.00;;;;;;;;5081772;27;45406;-72
2022/04/18 12:50:46;;;;;;;;;5.25;4.25;;;;;;;;5076037;27;45469;-72
2022/04/18 12:53:12;;;;;;;;;4.00;4.00;;;;;;;;5075260;27;45279;-72
2022/04/18 12:55:37;;;;;;;;;4.00;4.00;;;;;;;;5075372;27;45459;-72
2022/04/18 12:58:02;;;;;;;;;9.25;5.75;;;;;;;;5075672;27;46135;-74
2022/04/18 13:00:35;;;;;;;;;8.00;6.00;;;;;;;;5076128;27;45607;-74
2022/04/18 13:03:01;;;;;;;;;7.00;7.00;;;;;;;;5076043;27;45479;-74
2022/04/18 13:05:30;;;;;;;;;7.75;6.50;;;;;;;;5074942;27;47182;-74
2022/04/18 13:07:56;;;;;;;;;5.75;5.00;;;;;;;;5075195;27;45712;-74
2022/04/18 13:10:31;;;;;;;;;9.75;8.00;;;;;;;;5075981;27;45495;-74
2022/04/18 13:13:15;;;;;;;;;6.75;6.75;;;;;;;;5075660;27;45527;-74
2022/04/18 13:15:41;;;;;;;;;5.25;4.75;;;;;;;;5077164;27;45544;-74
2022/04/18 13:18:11;;;;;;;;;12.75;8.25;;;;;;;;5075930;27;45674;-73
2022/04/18 13:20:37;;;;;;;;;5.75;5.75;;;;;;;;5075925;27;45427;-74
2022/04/18 13:23:03;;;;;;;;;7.25;7.25;;;;;;;;5072849;28;45292;-74
2022/04/18 13:25:28;;;;;;;;;8.75;8.25;;;;;;;;5077267;27;46091;-74
2022/04/18 13:27:54;;;;;;;;;7.50;5.75;;;;;;;;5075120;27;45618;-74
2022/04/18 13:30:20;;;;;;;;;7.75;7.75;;;;;;;;5075841;27;45840;-74
2022/04/18 13:32:45;;;;;;;;;6.25;5.25;;;;;;;;5075569;27;45589;-74
2022/04/18 13:35:11;;;;;;;;;7.25;7.25;;;;;;;;5074672;27;46324;-74
2022/04/18 13:37:36;;;;;;;;;5.50;5.50;;;;;;;;5078142;27;45598;-74
2022/04/18 13:40:02;;;;;;;;;7.25;7.25;;;;;;;;5077567;27;45320;-73
2022/04/18 13:42:27;;;;;;;;;9.50;8.25;;;;;;;;5076780;27;45447;-74
2022/04/18 13:44:53;;;;;;;;;7.75;5.50;;;;;;;;5075573;27;45453;-73
2022/04/18 13:47:18;;;;;;;;;6.50;6.50;;;;;;;;5074961;27;45363;-73
2022/04/18 13:49:43;;;;;;;;;7.50;7.00;;;;;;;;5075585;27;45287;-74
2022/04/18 13:52:11;;;;;;;;;7.25;6.75;;;;;;;;5075356;27;45273;-73
2022/04/18 13:54:37;;;;;;;;;5.25;5.25;;;;;;;;5076333;27;46487;-74
2022/04/18 13:57:03;;;;;;;;;6.00;6.00;;;;;;;;5076492;27;45555;-74
2022/04/18 13:59:29;;;;;;;;;4.75;4.50;;;;;;;;5074721;27;45390;-74
2022/04/18 14:01:54;;;;;;;;;7.50;6.25;;;;;;;;5075406;27;45382;-74
2022/04/18 14:04:19;;;;;;;;;7.00;5.50;;;;;;;;5075140;27;46100;-73
2022/04/18 14:06:45;;;;;;;;;9.00;5.00;;;;;;;;5077769;27;45458;-73
2022/04/18 14:09:11;;;;;;;;;7.25;6.25;;;;;;;;5079375;27;45416;-74
2022/04/18 14:11:40;;;;;;;;;6.50;6.50;;;;;;;;5078444;27;45315;-74
2022/04/18 14:14:06;;;;;;;;;7.00;6.00;;;;;;;;5077826;27;46217;-74
2022/04/18 14:21:59;;;;;;;;;5.00;5.00;;;;;;;;5078538;27;45169;-73
2022/04/18 14:24:24;;;;;;;;;7.75;7.00;;;;;;;;5077875;27;46478;-74
2022/04/18 14:26:49;;;;;;;;;6.75;6.75;;;;;;;;5078727;27;45390;-74
2022/04/18 14:29:14;;;;;;;;;7.50;6.00;;;;;;;;5077827;27;45354;-73
2022/04/18 14:31:40;;;;;;;;;5.00;5.00;;;;;;;;5078548;27;45455;-73
2022/04/18 14:34:05;;;;;;;;;7.25;6.00;;;;;;;;5078499;27;45421;-73
2022/04/18 14:36:30;;;;;;;;;5.75;5.00;;;;;;;;5078151;27;45559;-73
2022/04/18 14:38:55;;;;;;;;;6.50;5.50;;;;;;;;5078241;27;45289;-74
2022/04/18 14:41:21;;;;;;;;;7.50;6.25;;;;;;;;5077909;27;45380;-73
2022/04/18 14:43:47;;;;;;;;;5.00;4.00;;;;;;;;5078105;27;46446;-73
2022/04/18 14:46:12;;;;;;;;;7.00;6.00;;;;;;;;5074951;27;45307;-73
2022/04/18 14:48:37;;;;;;;;;8.25;6.75;;;;;;;;5078200;27;45366;-73
2022/04/18 14:51:02;;;;;;;;;6.00;6.00;;;;;;;;5079612;27;45336;-73
2022/04/18 14:53:27;;;;;;;;;5.00;5.00;;;;;;;;5076772;27;46457;-72
2022/04/18 14:55:53;;;;;;;;;6.75;6.75;;;;;;;;5077739;27;45393;-70
2022/04/18 14:58:18;;;;;;;;;4.50;4.25;;;;;;;;5077819;27;45661;-72
2022/04/18 15:00:44;;;;;;;;;4.75;4.25;;;;;;;;5077730;27;45322;-71
2022/04/18 15:03:09;;;;;;;;;3.50;3.50;;;;;;;;5077302;27;45578;-71
2022/04/18 15:05:34;;;;;;;;;6.00;6.00;;;;;;;;5076943;27;45547;-71
2022/04/18 15:08:00;;;;;;;;;8.50;5.00;;;;;;;;5078966;27;46682;-71
2022/04/18 15:10:28;;;;;;;;;5.00;5.00;;;;;;;;5077374;27;45419;-70
2022/04/18 15:12:54;;;;;;;;;6.00;4.25;;;;;;;;5077318;27;47294;-69